sensor_id;sensor_type;location;lat;lon;timestamp;temperature;humidity
52275;DHT22;38228;50.940;4.024;2022-12-18T00:00:59;-2.30;99.90
52275;DHT22;38228;50.940;4.024;2022-12-18T00:03:24;-2.50;99.90
52275;DHT22;38228;50.940;4.024;2022-12-18T00:05:50;-3.00;99.90
52275;DHT22;38228;50.940;4.024;2022-12-18T00:08:16;-3.40;99.90
52275;DHT22;38228;50.940;4.024;2022-12-18T00:10:42;-3.60;99.90
52275;DHT22;38228;50.940;4.024;2022-12-18T00:13:07;-3.80;99.90
52275;DHT22;38228;50.940;4.024;2022-12-18T00:15:36;-3.80;99.90
52275;DHT22;38228;50.940;4.024;2022-12-18T00:18:02;-3.50;99.90
52275;DHT22;38228;50.940;4.024;2022-12-18T00:20:27;-3.10;99.90
52275;DHT22;38228;50.940;4.024;2022-12-18T00:22:53;-2.80;99.90
52275;DHT22;38228;50.940;4.024;2022-12-18T00:25:19;-3.00;99.90
52275;DHT22;38228;50.940;4.024;2022-12-18T00:27:45;-3.40;99.90
52275;DHT22;38228;50.940;4.024;2022-12-18T00:30:10;-3.80;99.90
52275;DHT22;38228;50.940;4.024;2022-12-18T00:32:36;-3.90;99.90
52275;DHT22;38228;50.940;4.024;2022-12-18T00:35:02;-4.00;99.90
52275;DHT22;38228;50.940;4.024;2022-12-18T00:37:28;-4.00;99.90
52275;DHT22;38228;50.940;4.024;2022-12-18T00:39:53;-4.00;99.90
52275;DHT22;38228;50.940;4.024;2022-12-18T00:42:19;-3.90;99.90
52275;DHT22;38228;50.940;4.024;2022-12-18T00:45:03;-3.60;99.90
52275;DHT22;38228;50.940;4.024;2022-12-18T00:47:28;-3.60;99.90
52275;DHT22;38228;50.940;4.024;2022-12-18T00:49:54;-3.60;99.90
52275;DHT22;38228;50.940;4.024;2022-12-18T00:52:19;-3.50;99.90
52275;DHT22;38228;50.940;4.024;2022-12-18T00:54:45;-3.60;99.90
52275;DHT22;38228;50.940;4.024;2022-12-18T00:57:10;-3.80;99.90
52275;DHT22;38228;50.940;4.024;2022-12-18T00:59:36;-3.90;99.90
52275;DHT22;38228;50.940;4.024;2022-12-18T01:02:01;-4.00;99.90
52275;DHT22;38228;50.940;4.024;2022-12-18T01:04:27;-4.10;99.90
52275;DHT22;38228;50.940;4.024;2022-12-18T01:06:52;-4.20;99.90
52275;DHT22;38228;50.940;4.024;2022-12-18T01:09:18;-4.10;99.90
52275;DHT22;38228;50.940;4.024;2022-12-18T01:11:43;-3.90;99.90
52275;DHT22;38228;50.940;4.024;2022-12-18T01:14:09;-3.70;99.90
52275;DHT22;38228;50.940;4.024;2022-12-18T01:16:35;-3.70;99.90
52275;DHT22;38228;50.940;4.024;2022-12-18T01:19:00;-3.80;99.90
52275;DHT22;38228;50.940;4.024;2022-12-18T01:21:26;-3.90;99.90
52275;DHT22;38228;50.940;4.024;2022-12-18T01:23:52;-4.10;99.90
52275;DHT22;38228;50.940;4.024;2022-12-18T01:26:18;-4.10;99.90
52275;DHT22;38228;50.940;4.024;2022-12-18T01:28:44;-4.20;99.90
52275;DHT22;38228;50.940;4.024;2022-12-18T01:31:17;-4.00;99.90
52275;DHT22;38228;50.940;4.024;2022-12-18T01:33:43;-4.10;99.90
52275;DHT22;38228;50.940;4.024;2022-12-18T01:36:14;-4.10;99.90
52275;DHT22;38228;50.940;4.024;2022-12-18T01:38:40;-3.80;99.90
52275;DHT22;38228;50.940;4.024;2022-12-18T01:41:05;-3.50;99.90
52275;DHT22;38228;50.940;4.024;2022-12-18T01:46:17;-4.20;99.90
52275;DHT22;38228;50.940;4.024;2022-12-18T01:48:44;-4.30;99.90
52275;DHT22;38228;50.940;4.024;2022-12-18T01:51:10;-4.20;99.90
52275;DHT22;38228;50.940;4.024;2022-12-18T01:53:37;-4.30;99.90
52275;DHT22;38228;50.940;4.024;2022-12-18T01:56:02;-4.30;99.90
52275;DHT22;38228;50.940;4.024;2022-12-18T01:58:35;-4.50;99.90
52275;DHT22;38228;50.940;4.024;2022-12-18T02:01:02;-4.20;99.90
52275;DHT22;38228;50.940;4.024;2022-12-18T02:03:27;-3.80;99.90
52275;DHT22;38228;50.940;4.024;2022-12-18T02:08:35;-4.10;99.90
52275;DHT22;38228;50.940;4.024;2022-12-18T02:11:05;-4.30;99.90
52275;DHT22;38228;50.940;4.024;2022-12-18T02:13:36;-4.10;99.90
52275;DHT22;38228;50.940;4.024;2022-12-18T02:16:16;-4.10;99.90
52275;DHT22;38228;50.940;4.024;2022-12-18T02:18:45;-4.40;99.90
52275;DHT22;38228;50.940;4.024;2022-12-18T02:21:20;-4.70;99.90
52275;DHT22;38228;50.940;4.024;2022-12-18T02:24:04;-4.70;99.90
52275;DHT22;38228;50.940;4.024;2022-12-18T02:26:40;-4.80;99.90
52275;DHT22;38228;50.940;4.024;2022-12-18T02:29:17;-4.90;99.90
52275;DHT22;38228;50.940;4.024;2022-12-18T02:31:48;-4.80;99.90
52275;DHT22;38228;50.940;4.024;2022-12-18T02:34:15;-4.70;99.90
52275;DHT22;38228;50.940;4.024;2022-12-18T02:36:41;-4.80;99.90
52275;DHT22;38228;50.940;4.024;2022-12-18T02:39:09;-4.90;99.90
52275;DHT22;38228;50.940;4.024;2022-12-18T02:41:36;-4.90;99.90
52275;DHT22;38228;50.940;4.024;2022-12-18T02:44:06;-4.90;99.90
52275;DHT22;38228;50.940;4.024;2022-12-18T02:46:33;-5.00;99.90
52275;DHT22;38228;50.940;4.024;2022-12-18T02:51:49;-4.90;99.90
52275;DHT22;38228;50.940;4.024;2022-12-18T02:56:49;-4.90;99.90
52275;DHT22;38228;50.940;4.024;2022-12-18T02:59:17;-4.90;99.90
52275;DHT22;38228;50.940;4.024;2022-12-18T03:06:57;-4.70;99.90
52275;DHT22;38228;50.940;4.024;2022-12-18T03:09:34;-4.60;99.90
52275;DHT22;38228;50.940;4.024;2022-12-18T03:12:22;-4.60;99.90
52275;DHT22;38228;50.940;4.024;2022-12-18T03:15:11;-4.60;99.90
52275;DHT22;38228;50.940;4.024;2022-12-18T03:17:35;-4.40;99.90
52275;DHT22;38228;50.940;4.024;2022-12-18T03:20:04;-4.20;99.90
52275;DHT22;38228;50.940;4.024;2022-12-18T03:22:32;-4.60;99.90
52275;DHT22;38228;50.940;4.024;2022-12-18T03:24:58;-4.70;99.90
52275;DHT22;38228;50.940;4.024;2022-12-18T03:27:25;-4.80;99.90
52275;DHT22;38228;50.940;4.024;2022-12-18T03:29:53;-4.80;99.90
52275;DHT22;38228;50.940;4.024;2022-12-18T03:32:21;-4.50;99.90
52275;DHT22;38228;50.940;4.024;2022-12-18T03:34:49;-4.20;99.90
52275;DHT22;38228;50.940;4.024;2022-12-18T03:37:16;-3.90;99.90
52275;DHT22;38228;50.940;4.024;2022-12-18T03:39:41;-3.80;99.90
52275;DHT22;38228;50.940;4.024;2022-12-18T03:42:08;-3.80;99.90
52275;DHT22;38228;50.940;4.024;2022-12-18T03:44:38;-3.90;99.90
52275;DHT22;38228;50.940;4.024;2022-12-18T03:52:19;-4.10;99.90
52275;DHT22;38228;50.940;4.024;2022-12-18T03:54:46;-3.90;99.90
52275;DHT22;38228;50.940;4.024;2022-12-18T03:57:13;-4.20;99.90
52275;DHT22;38228;50.940;4.024;2022-12-18T03:59:41;-4.40;99.90
52275;DHT22;38228;50.940;4.024;2022-12-18T04:02:08;-4.70;99.90
52275;DHT22;38228;50.940;4.024;2022-12-18T04:04:35;-4.90;99.90
52275;DHT22;38228;50.940;4.024;2022-12-18T04:07:01;-4.90;99.90
52275;DHT22;38228;50.940;4.024;2022-12-18T04:09:27;-4.80;99.90
52275;DHT22;38228;50.940;4.024;2022-12-18T04:11:53;-4.80;99.90
52275;DHT22;38228;50.940;4.024;2022-12-18T04:14:19;-4.80;99.90
52275;DHT22;38228;50.940;4.024;2022-12-18T04:16:44;-4.70;99.90
52275;DHT22;38228;50.940;4.024;2022-12-18T04:19:10;-4.50;99.90
52275;DHT22;38228;50.940;4.024;2022-12-18T04:21:35;-4.50;99.90
52275;DHT22;38228;50.940;4.024;2022-12-18T04:24:01;-4.70;99.90
52275;DHT22;38228;50.940;4.024;2022-12-18T04:26:26;-4.70;99.90
52275;DHT22;38228;50.940;4.024;2022-12-18T04:28:52;-4.70;99.90
52275;DHT22;38228;50.940;4.024;2022-12-18T04:31:17;-4.60;99.90
52275;DHT22;38228;50.940;4.024;2022-12-18T04:33:43;-4.30;99.90
52275;DHT22;38228;50.940;4.024;2022-12-18T04:36:08;-4.20;99.90
52275;DHT22;38228;50.940;4.024;2022-12-18T04:38:34;-4.40;99.90
52275;DHT22;38228;50.940;4.024;2022-12-18T04:40:59;-4.70;99.90
52275;DHT22;38228;50.940;4.024;2022-12-18T04:43:25;-4.90;99.90
52275;DHT22;38228;50.940;4.024;2022-12-18T04:45:50;-4.90;99.90
52275;DHT22;38228;50.940;4.024;2022-12-18T04:48:16;-4.80;99.90
52275;DHT22;38228;50.940;4.024;2022-12-18T04:50:42;-4.40;99.90
52275;DHT22;38228;50.940;4.024;2022-12-18T04:53:07;-4.20;99.90
52275;DHT22;38228;50.940;4.024;2022-12-18T04:55:33;-4.40;99.90
52275;DHT22;38228;50.940;4.024;2022-12-18T04:57:58;-4.30;99.90
52275;DHT22;38228;50.940;4.024;2022-12-18T05:00:24;-4.40;99.90
52275;DHT22;38228;50.940;4.024;2022-12-18T05:02:49;-4.50;99.90
52275;DHT22;38228;50.940;4.024;2022-12-18T05:05:15;-4.50;99.90
52275;DHT22;38228;50.940;4.024;2022-12-18T05:07:40;-4.60;99.90
52275;DHT22;38228;50.940;4.024;2022-12-18T05:10:06;-4.60;99.90
52275;DHT22;38228;50.940;4.024;2022-12-18T05:12:32;-4.80;99.90
52275;DHT22;38228;50.940;4.024;2022-12-18T05:14:57;-4.80;99.90
52275;DHT22;38228;50.940;4.024;2022-12-18T05:17:23;-4.90;99.90
52275;DHT22;38228;50.940;4.024;2022-12-18T05:19:48;-4.90;99.90
52275;DHT22;38228;50.940;4.024;2022-12-18T05:22:14;-4.80;99.90
52275;DHT22;38228;50.940;4.024;2022-12-18T05:24:39;-4.70;99.90
52275;DHT22;38228;50.940;4.024;2022-12-18T05:27:05;-4.60;99.90
52275;DHT22;38228;50.940;4.024;2022-12-18T05:29:30;-4.70;99.90
52275;DHT22;38228;50.940;4.024;2022-12-18T05:31:56;-4.90;99.90
52275;DHT22;38228;50.940;4.024;2022-12-18T05:34:21;-4.80;99.90
52275;DHT22;38228;50.940;4.024;2022-12-18T05:36:47;-4.80;99.90
52275;DHT22;38228;50.940;4.024;2022-12-18T05:39:13;-4.70;99.90
52275;DHT22;38228;50.940;4.024;2022-12-18T05:41:38;-4.60;99.90
52275;DHT22;38228;50.940;4.024;2022-12-18T05:44:04;-4.40;99.90
52275;DHT22;38228;50.940;4.024;2022-12-18T05:46:30;-4.30;99.90
52275;DHT22;38228;50.940;4.024;2022-12-18T05:48:58;-4.30;99.90
52275;DHT22;38228;50.940;4.024;2022-12-18T05:51:24;-4.40;99.90
52275;DHT22;38228;50.940;4.024;2022-12-18T05:53:49;-4.50;99.90
52275;DHT22;38228;50.940;4.024;2022-12-18T05:56:16;-4.50;99.90
52275;DHT22;38228;50.940;4.024;2022-12-18T05:58:42;-4.70;99.90
52275;DHT22;38228;50.940;4.024;2022-12-18T06:01:10;-4.80;99.90
52275;DHT22;38228;50.940;4.024;2022-12-18T06:03:36;-5.00;99.90
52275;DHT22;38228;50.940;4.024;2022-12-18T06:06:01;-5.10;99.90
52275;DHT22;38228;50.940;4.024;2022-12-18T06:08:27;-5.20;99.90
52275;DHT22;38228;50.940;4.024;2022-12-18T06:10:52;-5.10;99.90
52275;DHT22;38228;50.940;4.024;2022-12-18T06:13:18;-5.20;99.90
52275;DHT22;38228;50.940;4.024;2022-12-18T06:15:44;-5.10;99.90
52275;DHT22;38228;50.940;4.024;2022-12-18T06:18:09;-5.20;99.90
52275;DHT22;38228;50.940;4.024;2022-12-18T06:20:35;-5.20;99.90
52275;DHT22;38228;50.940;4.024;2022-12-18T06:23:02;-5.20;99.90
52275;DHT22;38228;50.940;4.024;2022-12-18T06:25:28;-5.20;99.90
52275;DHT22;38228;50.940;4.024;2022-12-18T06:27:53;-5.10;99.90
52275;DHT22;38228;50.940;4.024;2022-12-18T06:30:19;-5.00;99.90
52275;DHT22;38228;50.940;4.024;2022-12-18T06:32:45;-5.10;99.90
52275;DHT22;38228;50.940;4.024;2022-12-18T06:35:10;-5.20;99.90
52275;DHT22;38228;50.940;4.024;2022-12-18T06:37:36;-5.20;99.90
52275;DHT22;38228;50.940;4.024;2022-12-18T06:40:01;-5.10;99.90
52275;DHT22;38228;50.940;4.024;2022-12-18T06:42:28;-5.10;99.90
52275;DHT22;38228;50.940;4.024;2022-12-18T06:44:53;-5.00;99.90
52275;DHT22;38228;50.940;4.024;2022-12-18T06:47:19;-5.00;99.90
52275;DHT22;38228;50.940;4.024;2022-12-18T06:49:44;-5.20;99.90
52275;DHT22;38228;50.940;4.024;2022-12-18T06:52:10;-5.20;99.90
52275;DHT22;38228;50.940;4.024;2022-12-18T06:54:35;-5.10;99.90
52275;DHT22;38228;50.940;4.024;2022-12-18T06:57:01;-5.10;99.90
52275;DHT22;38228;50.940;4.024;2022-12-18T06:59:26;-4.90;99.90
52275;DHT22;38228;50.940;4.024;2022-12-18T07:01:52;-5.00;99.90
52275;DHT22;38228;50.940;4.024;2022-12-18T07:04:17;-5.00;99.90
52275;DHT22;38228;50.940;4.024;2022-12-18T07:06:43;-4.90;99.90
52275;DHT22;38228;50.940;4.024;2022-12-18T07:09:08;-4.80;99.90
52275;DHT22;38228;50.940;4.024;2022-12-18T07:11:34;-4.60;99.90
52275;DHT22;38228;50.940;4.024;2022-12-18T07:14:01;-4.60;99.90
52275;DHT22;38228;50.940;4.024;2022-12-18T07:16:26;-4.60;99.90
52275;DHT22;38228;50.940;4.024;2022-12-18T07:18:54;-4.80;99.90
52275;DHT22;38228;50.940;4.024;2022-12-18T07:21:20;-4.90;99.90
52275;DHT22;38228;50.940;4.024;2022-12-18T07:23:45;-4.80;99.90
52275;DHT22;38228;50.940;4.024;2022-12-18T07:26:14;-4.70;99.90
52275;DHT22;38228;50.940;4.024;2022-12-18T07:28:40;-4.60;99.90
52275;DHT22;38228;50.940;4.024;2022-12-18T07:31:10;-4.60;99.90
52275;DHT22;38228;50.940;4.024;2022-12-18T07:33:35;-4.70;99.90
52275;DHT22;38228;50.940;4.024;2022-12-18T07:36:01;-4.80;99.90
52275;DHT22;38228;50.940;4.024;2022-12-18T07:38:28;-4.80;99.90
52275;DHT22;38228;50.940;4.024;2022-12-18T07:40:54;-4.80;99.90
52275;DHT22;38228;50.940;4.024;2022-12-18T07:43:19;-4.70;99.90
52275;DHT22;38228;50.940;4.024;2022-12-18T07:45:45;-4.90;99.90
52275;DHT22;38228;50.940;4.024;2022-12-18T07:48:10;-4.90;99.90
52275;DHT22;38228;50.940;4.024;2022-12-18T07:50:36;-4.90;99.90
52275;DHT22;38228;50.940;4.024;2022-12-18T07:53:02;-5.00;99.90
52275;DHT22;38228;50.940;4.024;2022-12-18T07:55:30;-4.80;99.90
52275;DHT22;38228;50.940;4.024;2022-12-18T07:57:55;-4.40;99.90
52275;DHT22;38228;50.940;4.024;2022-12-18T08:00:21;-4.20;99.90
52275;DHT22;38228;50.940;4.024;2022-12-18T08:02:46;-4.40;99.90
52275;DHT22;38228;50.940;4.024;2022-12-18T08:05:12;-4.60;99.90
52275;DHT22;38228;50.940;4.024;2022-12-18T08:07:38;-4.80;99.90
52275;DHT22;38228;50.940;4.024;2022-12-18T08:10:04;-4.80;99.90
52275;DHT22;38228;50.940;4.024;2022-12-18T08:12:30;-4.70;99.90
52275;DHT22;38228;50.940;4.024;2022-12-18T08:14:56;-4.60;99.90
52275;DHT22;38228;50.940;4.024;2022-12-18T08:17:21;-4.50;99.90
52275;DHT22;38228;50.940;4.024;2022-12-18T08:19:47;-4.40;99.90
52275;DHT22;38228;50.940;4.024;2022-12-18T08:22:12;-4.20;99.90
52275;DHT22;38228;50.940;4.024;2022-12-18T08:24:38;-4.10;99.90
52275;DHT22;38228;50.940;4.024;2022-12-18T08:27:03;-4.10;99.90
52275;DHT22;38228;50.940;4.024;2022-12-18T08:29:29;-3.80;99.90
52275;DHT22;38228;50.940;4.024;2022-12-18T08:31:55;-3.50;99.90
52275;DHT22;38228;50.940;4.024;2022-12-18T08:34:21;-3.50;99.90
52275;DHT22;38228;50.940;4.024;2022-12-18T08:36:46;-3.50;99.90
52275;DHT22;38228;50.940;4.024;2022-12-18T08:39:12;-3.60;99.90
52275;DHT22;38228;50.940;4.024;2022-12-18T08:41:37;-3.60;99.90
52275;DHT22;38228;50.940;4.024;2022-12-18T08:44:03;-3.50;99.90
52275;DHT22;38228;50.940;4.024;2022-12-18T08:46:47;-3.50;99.90
52275;DHT22;38228;50.940;4.024;2022-12-18T08:49:12;-3.30;99.90
52275;DHT22;38228;50.940;4.024;2022-12-18T08:51:38;-3.00;99.90
52275;DHT22;38228;50.940;4.024;2022-12-18T08:54:04;-2.80;99.90
52275;DHT22;38228;50.940;4.024;2022-12-18T08:56:30;-2.60;99.90
52275;DHT22;38228;50.940;4.024;2022-12-18T08:58:55;-2.40;99.90
52275;DHT22;38228;50.940;4.024;2022-12-18T09:01:21;-2.50;99.90
52275;DHT22;38228;50.940;4.024;2022-12-18T09:03:48;-2.40;99.90
52275;DHT22;38228;50.940;4.024;2022-12-18T09:06:14;-2.30;99.90
52275;DHT22;38228;50.940;4.024;2022-12-18T09:08:41;-2.30;99.90
52275;DHT22;38228;50.940;4.024;2022-12-18T09:11:11;-2.10;99.90
52275;DHT22;38228;50.940;4.024;2022-12-18T09:13:37;-1.90;99.90
52275;DHT22;38228;50.940;4.024;2022-12-18T09:16:02;-1.80;99.90
52275;DHT22;38228;50.940;4.024;2022-12-18T09:18:28;-1.60;99.90
52275;DHT22;38228;50.940;4.024;2022-12-18T09:20:53;-1.60;99.90
52275;DHT22;38228;50.940;4.024;2022-12-18T09:23:19;-1.40;99.90
52275;DHT22;38228;50.940;4.024;2022-12-18T09:25:45;-1.30;99.90
52275;DHT22;38228;50.940;4.024;2022-12-18T09:28:12;-1.40;99.90
52275;DHT22;38228;50.940;4.024;2022-12-18T09:30:38;-1.40;99.90
52275;DHT22;38228;50.940;4.024;2022-12-18T09:33:03;-1.20;99.90
52275;DHT22;38228;50.940;4.024;2022-12-18T09:35:29;-1.10;99.90
52275;DHT22;38228;50.940;4.024;2022-12-18T09:37:55;-1.10;99.90
52275;DHT22;38228;50.940;4.024;2022-12-18T09:40:24;-1.00;99.90
52275;DHT22;38228;50.940;4.024;2022-12-18T09:42:57;-1.00;99.90
52275;DHT22;38228;50.940;4.024;2022-12-18T09:45:24;-0.90;99.90
52275;DHT22;38228;50.940;4.024;2022-12-18T09:47:50;-0.90;99.90
52275;DHT22;38228;50.940;4.024;2022-12-18T09:50:30;-0.90;99.90
52275;DHT22;38228;50.940;4.024;2022-12-18T09:52:57;-0.90;99.90
52275;DHT22;38228;50.940;4.024;2022-12-18T09:55:41;-0.70;99.90
52275;DHT22;38228;50.940;4.024;2022-12-18T09:58:19;-0.60;99.90
52275;DHT22;38228;50.940;4.024;2022-12-18T10:00:46;-0.60;99.90
52275;DHT22;38228;50.940;4.024;2022-12-18T10:03:12;-0.40;99.90
52275;DHT22;38228;50.940;4.024;2022-12-18T10:08:17;-0.20;99.90
52275;DHT22;38228;50.940;4.024;2022-12-18T10:10:55;-0.10;99.90
52275;DHT22;38228;50.940;4.024;2022-12-18T10:15:56;0.10;99.90
52275;DHT22;38228;50.940;4.024;2022-12-18T10:18:39;0.10;99.90
52275;DHT22;38228;50.940;4.024;2022-12-18T10:21:11;0.10;99.90
52275;DHT22;38228;50.940;4.024;2022-12-18T10:26:22;0.10;99.90
52275;DHT22;38228;50.940;4.024;2022-12-18T10:28:49;0.20;99.90
52275;DHT22;38228;50.940;4.024;2022-12-18T10:31:19;0.20;99.90
52275;DHT22;38228;50.940;4.024;2022-12-18T10:33:45;0.20;99.90
52275;DHT22;38228;50.940;4.024;2022-12-18T10:36:11;0.20;99.90
52275;DHT22;38228;50.940;4.024;2022-12-18T10:38:36;0.30;99.90
52275;DHT22;38228;50.940;4.024;2022-12-18T10:43:28;0.40;99.90
52275;DHT22;38228;50.940;4.024;2022-12-18T10:48:23;0.50;99.90
52275;DHT22;38228;50.940;4.024;2022-12-18T10:50:49;0.60;99.90
52275;DHT22;38228;50.940;4.024;2022-12-18T10:53:36;0.50;99.90
52275;DHT22;38228;50.940;4.024;2022-12-18T10:56:02;0.50;99.90
52275;DHT22;38228;50.940;4.024;2022-12-18T10:58:29;0.50;99.90
52275;DHT22;38228;50.940;4.024;2022-12-18T11:01:07;0.50;99.90
52275;DHT22;38228;50.940;4.024;2022-12-18T11:03:34;0.60;99.90
52275;DHT22;38228;50.940;4.024;2022-12-18T11:06:04;0.70;99.90
52275;DHT22;38228;50.940;4.024;2022-12-18T11:08:30;0.70;99.90
52275;DHT22;38228;50.940;4.024;2022-12-18T11:10:56;0.90;99.90
52275;DHT22;38228;50.940;4.024;2022-12-18T11:13:22;0.80;99.90
52275;DHT22;38228;50.940;4.024;2022-12-18T11:15:48;0.90;99.90
52275;DHT22;38228;50.940;4.024;2022-12-18T11:18:19;0.90;99.90
52275;DHT22;38228;50.940;4.024;2022-12-18T11:20:53;0.90;99.90
52275;DHT22;38228;50.940;4.024;2022-12-18T11:23:20;0.90;99.90
52275;DHT22;38228;50.940;4.024;2022-12-18T11:25:51;0.90;99.90
52275;DHT22;38228;50.940;4.024;2022-12-18T11:28:28;1.00;99.90
52275;DHT22;38228;50.940;4.024;2022-12-18T11:33:39;1.00;99.90
52275;DHT22;38228;50.940;4.024;2022-12-18T11:36:07;1.00;99.90
52275;DHT22;38228;50.940;4.024;2022-12-18T11:38:34;1.00;99.90
52275;DHT22;38228;50.940;4.024;2022-12-18T11:43:27;1.10;99.90
52275;DHT22;38228;50.940;4.024;2022-12-18T11:46:17;1.10;99.90
52275;DHT22;38228;50.940;4.024;2022-12-18T11:48:48;1.20;99.90
52275;DHT22;38228;50.940;4.024;2022-12-18T11:51:17;1.30;99.90
52275;DHT22;38228;50.940;4.024;2022-12-18T11:53:43;1.40;99.90
52275;DHT22;38228;50.940;4.024;2022-12-18T11:58:51;1.60;99.90
52275;DHT22;38228;50.940;4.024;2022-12-18T12:03:55;1.60;99.90
52275;DHT22;38228;50.940;4.024;2022-12-18T12:06:28;1.70;99.90
52275;DHT22;38228;50.940;4.024;2022-12-18T12:09:03;1.70;99.90
52275;DHT22;38228;50.940;4.024;2022-12-18T12:14:22;1.80;99.90
52275;DHT22;38228;50.940;4.024;2022-12-18T12:34:39;2.10;99.90
52275;DHT22;38228;50.940;4.024;2022-12-18T12:39:36;2.00;99.90
52275;DHT22;38228;50.940;4.024;2022-12-18T12:42:04;2.10;99.90
52275;DHT22;38228;50.940;4.024;2022-12-18T12:44:54;2.00;99.90
52275;DHT22;38228;50.940;4.024;2022-12-18T12:47:22;2.00;99.90
52275;DHT22;38228;50.940;4.024;2022-12-18T12:49:50;2.10;99.90
52275;DHT22;38228;50.940;4.024;2022-12-18T12:55:02;2.10;99.90
52275;DHT22;38228;50.940;4.024;2022-12-18T12:57:40;2.20;99.90
52275;DHT22;38228;50.940;4.024;2022-12-18T13:00:14;2.40;99.90
52275;DHT22;38228;50.940;4.024;2022-12-18T13:05:46;2.40;99.90
52275;DHT22;38228;50.940;4.024;2022-12-18T13:08:24;2.50;99.90
52275;DHT22;38228;50.940;4.024;2022-12-18T13:10:51;2.50;99.90
52275;DHT22;38228;50.940;4.024;2022-12-18T13:13:52;2.40;99.90
52275;DHT22;38228;50.940;4.024;2022-12-18T13:16:19;2.40;99.90
52275;DHT22;38228;50.940;4.024;2022-12-18T13:18:48;2.20;99.90
52275;DHT22;38228;50.940;4.024;2022-12-18T13:21:21;2.20;99.90
52275;DHT22;38228;50.940;4.024;2022-12-18T13:23:49;2.30;99.90
52275;DHT22;38228;50.940;4.024;2022-12-18T13:31:15;2.30;99.90
52275;DHT22;38228;50.940;4.024;2022-12-18T13:36:44;2.20;99.90
52275;DHT22;38228;50.940;4.024;2022-12-18T13:39:15;2.00;99.90
52275;DHT22;38228;50.940;4.024;2022-12-18T13:41:50;2.10;99.90
52275;DHT22;38228;50.940;4.024;2022-12-18T13:46:51;2.20;99.90
52275;DHT22;38228;50.940;4.024;2022-12-18T13:49:20;2.10;99.90
52275;DHT22;38228;50.940;4.024;2022-12-18T13:51:47;2.00;99.90
52275;DHT22;38228;50.940;4.024;2022-12-18T13:56:42;2.00;99.90
52275;DHT22;38228;50.940;4.024;2022-12-18T13:59:16;1.80;99.90
52275;DHT22;38228;50.940;4.024;2022-12-18T14:01:42;1.80;99.90
52275;DHT22;38228;50.940;4.024;2022-12-18T14:04:08;1.90;99.90
52275;DHT22;38228;50.940;4.024;2022-12-18T14:06:34;2.00;99.90
52275;DHT22;38228;50.940;4.024;2022-12-18T14:09:00;1.90;99.90
52275;DHT22;38228;50.940;4.024;2022-12-18T14:11:25;1.90;99.90
52275;DHT22;38228;50.940;4.024;2022-12-18T14:13:51;2.00;99.90
52275;DHT22;38228;50.940;4.024;2022-12-18T14:16:19;2.00;99.90
52275;DHT22;38228;50.940;4.024;2022-12-18T14:18:46;1.90;99.90
52275;DHT22;38228;50.940;4.024;2022-12-18T14:21:23;1.70;99.90
52275;DHT22;38228;50.940;4.024;2022-12-18T14:24:02;1.70;99.90
52275;DHT22;38228;50.940;4.024;2022-12-18T14:26:29;1.80;99.90
52275;DHT22;38228;50.940;4.024;2022-12-18T14:28:55;1.60;99.90
52275;DHT22;38228;50.940;4.024;2022-12-18T14:31:22;1.70;99.90
52275;DHT22;38228;50.940;4.024;2022-12-18T14:33:48;1.80;99.90
52275;DHT22;38228;50.940;4.024;2022-12-18T14:36:17;1.80;99.90
52275;DHT22;38228;50.940;4.024;2022-12-18T14:38:43;1.60;99.90
52275;DHT22;38228;50.940;4.024;2022-12-18T14:41:13;1.70;99.90
52275;DHT22;38228;50.940;4.024;2022-12-18T14:43:40;1.70;99.90
52275;DHT22;38228;50.940;4.024;2022-12-18T14:46:25;1.60;99.90
52275;DHT22;38228;50.940;4.024;2022-12-18T14:48:50;1.60;99.90
52275;DHT22;38228;50.940;4.024;2022-12-18T14:51:20;1.70;99.90
52275;DHT22;38228;50.940;4.024;2022-12-18T14:53:47;1.60;99.90
52275;DHT22;38228;50.940;4.024;2022-12-18T14:56:14;1.60;99.90
52275;DHT22;38228;50.940;4.024;2022-12-18T14:58:43;1.50;99.90
52275;DHT22;38228;50.940;4.024;2022-12-18T15:01:16;1.50;99.90
52275;DHT22;38228;50.940;4.024;2022-12-18T15:03:43;1.50;99.90
52275;DHT22;38228;50.940;4.024;2022-12-18T15:06:16;1.50;99.90
52275;DHT22;38228;50.940;4.024;2022-12-18T15:08:41;1.50;99.90
52275;DHT22;38228;50.940;4.024;2022-12-18T15:13:51;1.50;99.90
52275;DHT22;38228;50.940;4.024;2022-12-18T15:16:17;1.60;99.90
52275;DHT22;38228;50.940;4.024;2022-12-18T15:18:42;1.60;99.90
52275;DHT22;38228;50.940;4.024;2022-12-18T15:21:10;1.60;99.90
52275;DHT22;38228;50.940;4.024;2022-12-18T15:23:38;1.50;99.90
52275;DHT22;38228;50.940;4.024;2022-12-18T15:26:11;1.50;99.90
52275;DHT22;38228;50.940;4.024;2022-12-18T15:28:38;1.60;99.90
52275;DHT22;38228;50.940;4.024;2022-12-18T15:33:37;1.70;99.90
52275;DHT22;38228;50.940;4.024;2022-12-18T15:36:04;1.70;99.90
52275;DHT22;38228;50.940;4.024;2022-12-18T15:38:30;1.80;99.90
52275;DHT22;38228;50.940;4.024;2022-12-18T15:40:55;1.70;99.90
52275;DHT22;38228;50.940;4.024;2022-12-18T15:43:22;1.80;99.90
52275;DHT22;38228;50.940;4.024;2022-12-18T15:46:22;1.80;99.90
52275;DHT22;38228;50.940;4.024;2022-12-18T15:48:50;1.70;99.90
52275;DHT22;38228;50.940;4.024;2022-12-18T15:53:41;1.80;99.90
52275;DHT22;38228;50.940;4.024;2022-12-18T15:56:13;1.80;99.90
52275;DHT22;38228;50.940;4.024;2022-12-18T15:58:57;1.90;99.90
52275;DHT22;38228;50.940;4.024;2022-12-18T16:01:23;1.80;99.90
52275;DHT22;38228;50.940;4.024;2022-12-18T16:03:49;1.90;99.90
52275;DHT22;38228;50.940;4.024;2022-12-18T16:06:14;1.90;99.90
52275;DHT22;38228;50.940;4.024;2022-12-18T16:08:40;1.80;99.90
52275;DHT22;38228;50.940;4.024;2022-12-18T16:11:05;1.90;99.90
52275;DHT22;38228;50.940;4.024;2022-12-18T16:13:34;1.90;99.90
52275;DHT22;38228;50.940;4.024;2022-12-18T16:15:59;2.00;99.90
52275;DHT22;38228;50.940;4.024;2022-12-18T16:18:25;1.90;99.90
52275;DHT22;38228;50.940;4.024;2022-12-18T16:20:50;1.90;99.90
52275;DHT22;38228;50.940;4.024;2022-12-18T16:23:16;1.90;99.90
52275;DHT22;38228;50.940;4.024;2022-12-18T16:25:41;2.00;99.90
52275;DHT22;38228;50.940;4.024;2022-12-18T16:28:07;2.00;99.90
52275;DHT22;38228;50.940;4.024;2022-12-18T16:30:32;1.90;99.90
52275;DHT22;38228;50.940;4.024;2022-12-18T16:32:58;2.00;99.90
52275;DHT22;38228;50.940;4.024;2022-12-18T16:35:24;2.00;99.90
52275;DHT22;38228;50.940;4.024;2022-12-18T16:37:50;2.00;99.90
52275;DHT22;38228;50.940;4.024;2022-12-18T16:40:16;2.10;99.90
52275;DHT22;38228;50.940;4.024;2022-12-18T16:42:42;2.00;99.90
52275;DHT22;38228;50.940;4.024;2022-12-18T16:45:09;2.00;99.90
52275;DHT22;38228;50.940;4.024;2022-12-18T16:47:34;2.10;99.90
52275;DHT22;38228;50.940;4.024;2022-12-18T16:50:00;2.10;99.90
52275;DHT22;38228;50.940;4.024;2022-12-18T16:52:26;2.10;99.90
52275;DHT22;38228;50.940;4.024;2022-12-18T16:54:51;2.00;99.90
52275;DHT22;38228;50.940;4.024;2022-12-18T16:57:18;2.00;99.90
52275;DHT22;38228;50.940;4.024;2022-12-18T16:59:44;2.00;99.90
52275;DHT22;38228;50.940;4.024;2022-12-18T17:02:20;2.00;99.90
52275;DHT22;38228;50.940;4.024;2022-12-18T17:04:45;2.00;99.90
52275;DHT22;38228;50.940;4.024;2022-12-18T17:07:11;2.10;99.90
52275;DHT22;38228;50.940;4.024;2022-12-18T17:09:37;2.00;99.90
52275;DHT22;38228;50.940;4.024;2022-12-18T17:12:02;2.10;99.90
52275;DHT22;38228;50.940;4.024;2022-12-18T17:14:28;2.10;99.90